sensor_id;sensor_type;location;lat;lon;timestamp;P1;durP1;ratioP1;P2;durP2;ratioP2
69511;SDS011;70777;52.034;4.644;2023-07-31T00:01:26;32.75;;;8.27;;
69511;SDS011;70777;52.034;4.644;2023-07-31T00:03:51;40.40;;;7.97;;
69511;SDS011;70777;52.034;4.644;2023-07-31T00:06:16;29.70;;;7.85;;
69511;SDS011;70777;52.034;4.644;2023-07-31T00:08:42;41.92;;;7.85;;
69511;SDS011;70777;52.034;4.644;2023-07-31T00:11:07;27.33;;;7.00;;
69511;SDS011;70777;52.034;4.644;2023-07-31T00:13:32;30.38;;;6.80;;
69511;SDS011;70777;52.034;4.644;2023-07-31T00:15:58;33.50;;;8.82;;
69511;SDS011;70777;52.034;4.644;2023-07-31T00:18:24;33.67;;;7.18;;
69511;SDS011;70777;52.034;4.644;2023-07-31T00:20:49;28.52;;;7.82;;
69511;SDS011;70777;52.034;4.644;2023-07-31T00:23:15;22.67;;;5.90;;
69511;SDS011;70777;52.034;4.644;2023-07-31T00:25:40;27.05;;;6.55;;
69511;SDS011;70777;52.034;4.644;2023-07-31T00:28:05;29.65;;;7.65;;
69511;SDS011;70777;52.034;4.644;2023-07-31T00:30:31;32.60;;;7.90;;
69511;SDS011;70777;52.034;4.644;2023-07-31T00:32:56;32.10;;;7.18;;
69511;SDS011;70777;52.034;4.644;2023-07-31T00:35:22;34.35;;;7.15;;
69511;SDS011;70777;52.034;4.644;2023-07-31T00:37:47;37.35;;;7.70;;
69511;SDS011;70777;52.034;4.644;2023-07-31T00:40:12;34.45;;;7.70;;
69511;SDS011;70777;52.034;4.644;2023-07-31T00:42:39;39.03;;;8.60;;
69511;SDS011;70777;52.034;4.644;2023-07-31T00:45:04;29.95;;;8.07;;
69511;SDS011;70777;52.034;4.644;2023-07-31T00:47:30;39.35;;;8.98;;
69511;SDS011;70777;52.034;4.644;2023-07-31T00:49:55;36.88;;;8.48;;
69511;SDS011;70777;52.034;4.644;2023-07-31T00:52:21;38.95;;;8.18;;
69511;SDS011;70777;52.034;4.644;2023-07-31T00:54:46;30.50;;;8.13;;
69511;SDS011;70777;52.034;4.644;2023-07-31T00:57:11;35.00;;;8.20;;
69511;SDS011;70777;52.034;4.644;2023-07-31T00:59:37;45.13;;;9.38;;
69511;SDS011;70777;52.034;4.644;2023-07-31T01:02:02;42.70;;;10.15;;
69511;SDS011;70777;52.034;4.644;2023-07-31T01:04:28;35.50;;;8.70;;
69511;SDS011;70777;52.034;4.644;2023-07-31T01:12:13;32.60;;;7.93;;
69511;SDS011;70777;52.034;4.644;2023-07-31T01:14:39;29.48;;;7.70;;
69511;SDS011;70777;52.034;4.644;2023-07-31T01:17:05;30.80;;;7.40;;
69511;SDS011;70777;52.034;4.644;2023-07-31T01:19:30;25.25;;;6.25;;
69511;SDS011;70777;52.034;4.644;2023-07-31T01:22:04;22.65;;;5.55;;
69511;SDS011;70777;52.034;4.644;2023-07-31T01:27:31;21.90;;;5.55;;
69511;SDS011;70777;52.034;4.644;2023-07-31T01:30:11;25.65;;;5.65;;
69511;SDS011;70777;52.034;4.644;2023-07-31T01:32:42;23.55;;;6.75;;
69511;SDS011;70777;52.034;4.644;2023-07-31T01:35:08;32.00;;;7.18;;
69511;SDS011;70777;52.034;4.644;2023-07-31T01:37:34;35.08;;;7.43;;
69511;SDS011;70777;52.034;4.644;2023-07-31T01:40:00;29.95;;;7.60;;
69511;SDS011;70777;52.034;4.644;2023-07-31T01:42:25;31.73;;;7.28;;
69511;SDS011;70777;52.034;4.644;2023-07-31T01:44:50;37.28;;;7.32;;
69511;SDS011;70777;52.034;4.644;2023-07-31T01:47:16;41.53;;;7.93;;
69511;SDS011;70777;52.034;4.644;2023-07-31T01:49:41;27.50;;;7.72;;
69511;SDS011;70777;52.034;4.644;2023-07-31T01:52:07;37.60;;;8.30;;
69511;SDS011;70777;52.034;4.644;2023-07-31T01:54:32;29.95;;;8.10;;
69511;SDS011;70777;52.034;4.644;2023-07-31T01:56:58;30.58;;;8.10;;
69511;SDS011;70777;52.034;4.644;2023-07-31T01:59:24;29.75;;;7.25;;
69511;SDS011;70777;52.034;4.644;2023-07-31T02:01:49;32.67;;;6.43;;
69511;SDS011;70777;52.034;4.644;2023-07-31T02:04:14;32.33;;;6.80;;
69511;SDS011;70777;52.034;4.644;2023-07-31T02:06:40;35.33;;;7.15;;
69511;SDS011;70777;52.034;4.644;2023-07-31T02:09:05;37.38;;;7.05;;
69511;SDS011;70777;52.034;4.644;2023-07-31T02:11:31;30.67;;;7.03;;
69511;SDS011;70777;52.034;4.644;2023-07-31T02:13:56;37.42;;;8.63;;
69511;SDS011;70777;52.034;4.644;2023-07-31T02:16:22;39.95;;;9.57;;
69511;SDS011;70777;52.034;4.644;2023-07-31T02:18:47;26.85;;;6.85;;
69511;SDS011;70777;52.034;4.644;2023-07-31T02:21:12;28.27;;;7.72;;
69511;SDS011;70777;52.034;4.644;2023-07-31T02:23:38;30.45;;;7.13;;
69511;SDS011;70777;52.034;4.644;2023-07-31T02:26:03;39.90;;;8.82;;
69511;SDS011;70777;52.034;4.644;2023-07-31T02:28:29;31.25;;;7.65;;
69511;SDS011;70777;52.034;4.644;2023-07-31T02:30:55;29.55;;;7.07;;
69511;SDS011;70777;52.034;4.644;2023-07-31T02:33:20;31.98;;;7.90;;
69511;SDS011;70777;52.034;4.644;2023-07-31T02:35:45;31.85;;;8.10;;
69511;SDS011;70777;52.034;4.644;2023-07-31T02:38:11;34.45;;;7.90;;
69511;SDS011;70777;52.034;4.644;2023-07-31T02:40:36;27.90;;;7.20;;
69511;SDS011;70777;52.034;4.644;2023-07-31T02:43:02;26.33;;;6.47;;
69511;SDS011;70777;52.034;4.644;2023-07-31T02:45:27;25.27;;;6.35;;
69511;SDS011;70777;52.034;4.644;2023-07-31T02:47:52;26.73;;;7.47;;
69511;SDS011;70777;52.034;4.644;2023-07-31T02:50:18;26.90;;;6.60;;
69511;SDS011;70777;52.034;4.644;2023-07-31T02:52:43;29.45;;;7.35;;
69511;SDS011;70777;52.034;4.644;2023-07-31T02:55:08;18.63;;;6.28;;
69511;SDS011;70777;52.034;4.644;2023-07-31T02:57:34;24.20;;;6.13;;
69511;SDS011;70777;52.034;4.644;2023-07-31T02:59:59;28.67;;;6.63;;
69511;SDS011;70777;52.034;4.644;2023-07-31T03:02:25;27.83;;;6.25;;
69511;SDS011;70777;52.034;4.644;2023-07-31T03:04:50;18.55;;;5.53;;
69511;SDS011;70777;52.034;4.644;2023-07-31T03:07:15;29.13;;;6.88;;
69511;SDS011;70777;52.034;4.644;2023-07-31T03:09:41;24.17;;;6.85;;
69511;SDS011;70777;52.034;4.644;2023-07-31T03:12:07;28.00;;;6.00;;
69511;SDS011;70777;52.034;4.644;2023-07-31T03:14:33;20.88;;;5.97;;
69511;SDS011;70777;52.034;4.644;2023-07-31T03:16:58;23.27;;;6.85;;
69511;SDS011;70777;52.034;4.644;2023-07-31T03:19:24;23.73;;;5.88;;
69511;SDS011;70777;52.034;4.644;2023-07-31T03:21:49;26.58;;;6.40;;
69511;SDS011;70777;52.034;4.644;2023-07-31T03:24:15;21.17;;;6.10;;
69511;SDS011;70777;52.034;4.644;2023-07-31T03:26:40;24.13;;;5.95;;
69511;SDS011;70777;52.034;4.644;2023-07-31T03:29:06;21.92;;;6.00;;
69511;SDS011;70777;52.034;4.644;2023-07-31T03:31:32;20.92;;;6.50;;
69511;SDS011;70777;52.034;4.644;2023-07-31T03:33:57;18.88;;;5.35;;
69511;SDS011;70777;52.034;4.644;2023-07-31T03:36:23;22.23;;;6.20;;
69511;SDS011;70777;52.034;4.644;2023-07-31T03:38:48;22.75;;;5.65;;
69511;SDS011;70777;52.034;4.644;2023-07-31T03:41:13;28.08;;;6.65;;
69511;SDS011;70777;52.034;4.644;2023-07-31T03:43:39;23.92;;;6.25;;
69511;SDS011;70777;52.034;4.644;2023-07-31T03:46:04;23.15;;;5.85;;
69511;SDS011;70777;52.034;4.644;2023-07-31T03:48:30;27.10;;;5.90;;
69511;SDS011;70777;52.034;4.644;2023-07-31T03:50:55;26.33;;;5.85;;
69511;SDS011;70777;52.034;4.644;2023-07-31T03:53:21;22.25;;;5.75;;
69511;SDS011;70777;52.034;4.644;2023-07-31T03:55:46;19.23;;;5.88;;
69511;SDS011;70777;52.034;4.644;2023-07-31T03:58:11;21.08;;;4.97;;
69511;SDS011;70777;52.034;4.644;2023-07-31T04:00:37;22.70;;;6.20;;
69511;SDS011;70777;52.034;4.644;2023-07-31T04:03:02;22.05;;;5.70;;
69511;SDS011;70777;52.034;4.644;2023-07-31T04:05:29;21.38;;;6.57;;
69511;SDS011;70777;52.034;4.644;2023-07-31T04:07:56;21.13;;;6.68;;
69511;SDS011;70777;52.034;4.644;2023-07-31T04:10:21;23.92;;;7.00;;
69511;SDS011;70777;52.034;4.644;2023-07-31T04:12:48;18.75;;;6.45;;
69511;SDS011;70777;52.034;4.644;2023-07-31T04:15:13;19.70;;;6.95;;
69511;SDS011;70777;52.034;4.644;2023-07-31T04:17:38;19.27;;;7.10;;
69511;SDS011;70777;52.034;4.644;2023-07-31T04:20:04;21.95;;;6.93;;
69511;SDS011;70777;52.034;4.644;2023-07-31T04:22:30;20.80;;;7.55;;
69511;SDS011;70777;52.034;4.644;2023-07-31T04:24:55;16.35;;;6.88;;
69511;SDS011;70777;52.034;4.644;2023-07-31T04:27:21;16.77;;;6.40;;
69511;SDS011;70777;52.034;4.644;2023-07-31T04:29:46;12.50;;;5.95;;
69511;SDS011;70777;52.034;4.644;2023-07-31T04:32:12;15.38;;;6.00;;
69511;SDS011;70777;52.034;4.644;2023-07-31T04:34:38;13.20;;;5.32;;
69511;SDS011;70777;52.034;4.644;2023-07-31T04:37:03;15.05;;;5.03;;
69511;SDS011;70777;52.034;4.644;2023-07-31T04:39:29;14.40;;;5.38;;
69511;SDS011;70777;52.034;4.644;2023-07-31T04:41:54;12.85;;;5.10;;
69511;SDS011;70777;52.034;4.644;2023-07-31T04:44:20;9.65;;;4.45;;
69511;SDS011;70777;52.034;4.644;2023-07-31T04:46:45;13.57;;;4.47;;
69511;SDS011;70777;52.034;4.644;2023-07-31T04:49:11;9.52;;;3.90;;
69511;SDS011;70777;52.034;4.644;2023-07-31T04:51:36;9.65;;;3.90;;
69511;SDS011;70777;52.034;4.644;2023-07-31T04:54:02;6.88;;;3.58;;
69511;SDS011;70777;52.034;4.644;2023-07-31T04:56:27;8.95;;;4.43;;
69511;SDS011;70777;52.034;4.644;2023-07-31T04:58:53;9.70;;;4.07;;
69511;SDS011;70777;52.034;4.644;2023-07-31T05:01:18;11.82;;;4.47;;
69511;SDS011;70777;52.034;4.644;2023-07-31T05:03:44;14.82;;;4.63;;
69511;SDS011;70777;52.034;4.644;2023-07-31T05:06:09;11.68;;;4.97;;
69511;SDS011;70777;52.034;4.644;2023-07-31T05:08:34;11.05;;;5.10;;
69511;SDS011;70777;52.034;4.644;2023-07-31T05:11:00;13.70;;;4.95;;
69511;SDS011;70777;52.034;4.644;2023-07-31T05:13:25;10.18;;;4.88;;
69511;SDS011;70777;52.034;4.644;2023-07-31T05:15:51;11.60;;;4.90;;
69511;SDS011;70777;52.034;4.644;2023-07-31T05:18:16;10.68;;;5.07;;
69511;SDS011;70777;52.034;4.644;2023-07-31T05:20:41;12.70;;;5.47;;
69511;SDS011;70777;52.034;4.644;2023-07-31T05:23:07;9.20;;;4.78;;
69511;SDS011;70777;52.034;4.644;2023-07-31T05:25:32;16.85;;;4.60;;
69511;SDS011;70777;52.034;4.644;2023-07-31T05:27:58;12.38;;;4.45;;
69511;SDS011;70777;52.034;4.644;2023-07-31T05:30:23;11.43;;;4.15;;
69511;SDS011;70777;52.034;4.644;2023-07-31T05:32:48;14.20;;;4.95;;
69511;SDS011;70777;52.034;4.644;2023-07-31T05:35:14;10.15;;;4.00;;
69511;SDS011;70777;52.034;4.644;2023-07-31T05:37:39;11.52;;;4.13;;
69511;SDS011;70777;52.034;4.644;2023-07-31T05:40:05;9.23;;;3.88;;
69511;SDS011;70777;52.034;4.644;2023-07-31T05:42:31;8.73;;;3.70;;
69511;SDS011;70777;52.034;4.644;2023-07-31T05:44:56;9.70;;;4.22;;
69511;SDS011;70777;52.034;4.644;2023-07-31T05:47:21;10.50;;;3.67;;
69511;SDS011;70777;52.034;4.644;2023-07-31T05:49:48;8.10;;;3.20;;
69511;SDS011;70777;52.034;4.644;2023-07-31T05:54:41;10.43;;;3.77;;
69511;SDS011;70777;52.034;4.644;2023-07-31T05:57:07;7.25;;;3.45;;
69511;SDS011;70777;52.034;4.644;2023-07-31T05:59:32;6.90;;;3.53;;
69511;SDS011;70777;52.034;4.644;2023-07-31T06:01:58;13.57;;;3.65;;
69511;SDS011;70777;52.034;4.644;2023-07-31T06:04:24;7.55;;;2.88;;
69511;SDS011;70777;52.034;4.644;2023-07-31T06:06:50;7.70;;;3.33;;
69511;SDS011;70777;52.034;4.644;2023-07-31T06:09:16;8.73;;;3.38;;
69511;SDS011;70777;52.034;4.644;2023-07-31T06:11:41;8.02;;;3.25;;
69511;SDS011;70777;52.034;4.644;2023-07-31T06:14:07;8.95;;;2.72;;
69511;SDS011;70777;52.034;4.644;2023-07-31T06:16:32;6.93;;;3.10;;
69511;SDS011;70777;52.034;4.644;2023-07-31T06:18:57;8.45;;;3.28;;
69511;SDS011;70777;52.034;4.644;2023-07-31T06:21:23;9.30;;;3.40;;
69511;SDS011;70777;52.034;4.644;2023-07-31T06:23:48;6.00;;;2.95;;
69511;SDS011;70777;52.034;4.644;2023-07-31T06:26:14;6.82;;;3.45;;
69511;SDS011;70777;52.034;4.644;2023-07-31T06:28:39;8.13;;;2.95;;
69511;SDS011;70777;52.034;4.644;2023-07-31T06:31:04;5.43;;;3.05;;
69511;SDS011;70777;52.034;4.644;2023-07-31T06:33:30;7.30;;;2.70;;
69511;SDS011;70777;52.034;4.644;2023-07-31T06:35:55;6.15;;;2.60;;
69511;SDS011;70777;52.034;4.644;2023-07-31T06:38:25;5.65;;;2.38;;
69511;SDS011;70777;52.034;4.644;2023-07-31T06:40:51;4.50;;;1.83;;
69511;SDS011;70777;52.034;4.644;2023-07-31T06:43:17;2.70;;;1.80;;
69511;SDS011;70777;52.034;4.644;2023-07-31T06:45:42;4.35;;;1.98;;
69511;SDS011;70777;52.034;4.644;2023-07-31T06:48:08;4.07;;;1.92;;
69511;SDS011;70777;52.034;4.644;2023-07-31T06:50:33;4.05;;;2.00;;
69511;SDS011;70777;52.034;4.644;2023-07-31T06:52:59;3.72;;;1.75;;
69511;SDS011;70777;52.034;4.644;2023-07-31T06:55:24;3.38;;;1.67;;
69511;SDS011;70777;52.034;4.644;2023-07-31T06:57:51;3.20;;;1.50;;
69511;SDS011;70777;52.034;4.644;2023-07-31T07:00:18;4.32;;;1.80;;
69511;SDS011;70777;52.034;4.644;2023-07-31T07:02:44;2.67;;;1.60;;
69511;SDS011;70777;52.034;4.644;2023-07-31T07:05:12;3.72;;;1.77;;
69511;SDS011;70777;52.034;4.644;2023-07-31T07:07:37;3.92;;;2.00;;
69511;SDS011;70777;52.034;4.644;2023-07-31T07:10:03;5.10;;;1.92;;
69511;SDS011;70777;52.034;4.644;2023-07-31T07:12:30;2.80;;;1.80;;
69511;SDS011;70777;52.034;4.644;2023-07-31T07:14:56;3.13;;;1.73;;
69511;SDS011;70777;52.034;4.644;2023-07-31T07:17:25;3.65;;;1.70;;
69511;SDS011;70777;52.034;4.644;2023-07-31T07:19:57;5.30;;;1.90;;
69511;SDS011;70777;52.034;4.644;2023-07-31T07:22:23;4.45;;;1.38;;
69511;SDS011;70777;52.034;4.644;2023-07-31T07:24:49;4.53;;;1.73;;
69511;SDS011;70777;52.034;4.644;2023-07-31T07:27:14;2.90;;;1.70;;
69511;SDS011;70777;52.034;4.644;2023-07-31T07:29:39;2.33;;;1.60;;
69511;SDS011;70777;52.034;4.644;2023-07-31T07:32:05;2.85;;;1.63;;
69511;SDS011;70777;52.034;4.644;2023-07-31T07:34:31;3.30;;;1.40;;
69511;SDS011;70777;52.034;4.644;2023-07-31T07:36:56;3.28;;;1.75;;
69511;SDS011;70777;52.034;4.644;2023-07-31T07:39:21;3.30;;;1.55;;
69511;SDS011;70777;52.034;4.644;2023-07-31T07:41:47;3.40;;;1.50;;
69511;SDS011;70777;52.034;4.644;2023-07-31T07:44:13;2.00;;;1.40;;
69511;SDS011;70777;52.034;4.644;2023-07-31T07:46:39;2.40;;;1.48;;
69511;SDS011;70777;52.034;4.644;2023-07-31T07:49:04;7.55;;;1.45;;
69511;SDS011;70777;52.034;4.644;2023-07-31T07:51:30;4.25;;;1.75;;
69511;SDS011;70777;52.034;4.644;2023-07-31T07:53:56;3.90;;;1.30;;
69511;SDS011;70777;52.034;4.644;2023-07-31T07:56:23;2.10;;;1.30;;
69511;SDS011;70777;52.034;4.644;2023-07-31T07:58:49;3.30;;;1.15;;
69511;SDS011;70777;52.034;4.644;2023-07-31T08:01:15;2.78;;;1.15;;
69511;SDS011;70777;52.034;4.644;2023-07-31T08:03:41;2.25;;;1.27;;
69511;SDS011;70777;52.034;4.644;2023-07-31T08:06:06;1.38;;;1.00;;
69511;SDS011;70777;52.034;4.644;2023-07-31T08:08:34;8.52;;;1.20;;
69511;SDS011;70777;52.034;4.644;2023-07-31T08:10:59;1.83;;;1.35;;
69511;SDS011;70777;52.034;4.644;2023-07-31T08:13:25;1.10;;;0.77;;
69511;SDS011;70777;52.034;4.644;2023-07-31T08:15:50;1.30;;;0.80;;
69511;SDS011;70777;52.034;4.644;2023-07-31T08:18:16;2.55;;;0.80;;
69511;SDS011;70777;52.034;4.644;2023-07-31T08:20:42;3.03;;;0.83;;
69511;SDS011;70777;52.034;4.644;2023-07-31T08:23:07;2.25;;;0.90;;
69511;SDS011;70777;52.034;4.644;2023-07-31T08:25:34;2.45;;;1.05;;
69511;SDS011;70777;52.034;4.644;2023-07-31T08:28:00;1.25;;;0.90;;
69511;SDS011;70777;52.034;4.644;2023-07-31T08:30:26;1.23;;;0.98;;
69511;SDS011;70777;52.034;4.644;2023-07-31T08:32:52;1.67;;;0.90;;
69511;SDS011;70777;52.034;4.644;2023-07-31T08:35:17;1.52;;;0.95;;
69511;SDS011;70777;52.034;4.644;2023-07-31T08:37:43;1.38;;;0.98;;
69511;SDS011;70777;52.034;4.644;2023-07-31T08:40:08;3.17;;;0.88;;
69511;SDS011;70777;52.034;4.644;2023-07-31T08:42:34;2.05;;;1.00;;
69511;SDS011;70777;52.034;4.644;2023-07-31T08:45:08;2.05;;;0.82;;
69511;SDS011;70777;52.034;4.644;2023-07-31T08:47:34;1.85;;;1.00;;
69511;SDS011;70777;52.034;4.644;2023-07-31T08:50:00;2.00;;;0.90;;
69511;SDS011;70777;52.034;4.644;2023-07-31T08:52:25;2.22;;;0.80;;
69511;SDS011;70777;52.034;4.644;2023-07-31T08:54:51;1.20;;;0.75;;
69511;SDS011;70777;52.034;4.644;2023-07-31T08:57:16;2.58;;;1.10;;
69511;SDS011;70777;52.034;4.644;2023-07-31T08:59:41;1.38;;;0.90;;
69511;SDS011;70777;52.034;4.644;2023-07-31T09:02:08;1.30;;;1.10;;
69511;SDS011;70777;52.034;4.644;2023-07-31T09:04:34;2.08;;;1.35;;
69511;SDS011;70777;52.034;4.644;2023-07-31T09:07:00;3.40;;;1.67;;
69511;SDS011;70777;52.034;4.644;2023-07-31T09:09:29;4.22;;;1.75;;
69511;SDS011;70777;52.034;4.644;2023-07-31T09:11:58;4.97;;;1.77;;
69511;SDS011;70777;52.034;4.644;2023-07-31T09:14:27;5.05;;;1.63;;
69511;SDS011;70777;52.034;4.644;2023-07-31T09:16:53;6.43;;;2.17;;
69511;SDS011;70777;52.034;4.644;2023-07-31T09:19:32;3.90;;;2.45;;
69511;SDS011;70777;52.034;4.644;2023-07-31T09:21:59;6.90;;;2.20;;
69511;SDS011;70777;52.034;4.644;2023-07-31T09:24:25;5.00;;;3.05;;
69511;SDS011;70777;52.034;4.644;2023-07-31T09:26:53;6.78;;;2.63;;
69511;SDS011;70777;52.034;4.644;2023-07-31T09:29:20;5.50;;;3.05;;
69511;SDS011;70777;52.034;4.644;2023-07-31T09:31:45;6.28;;;2.78;;
69511;SDS011;70777;52.034;4.644;2023-07-31T09:34:11;8.02;;;3.10;;
69511;SDS011;70777;52.034;4.644;2023-07-31T09:39:11;4.20;;;2.28;;
69511;SDS011;70777;52.034;4.644;2023-07-31T09:41:38;4.43;;;2.13;;
69511;SDS011;70777;52.034;4.644;2023-07-31T09:44:04;3.03;;;1.83;;
69511;SDS011;70777;52.034;4.644;2023-07-31T09:46:30;3.55;;;2.03;;
69511;SDS011;70777;52.034;4.644;2023-07-31T09:49:11;3.40;;;2.05;;
69511;SDS011;70777;52.034;4.644;2023-07-31T09:51:39;4.47;;;2.10;;
69511;SDS011;70777;52.034;4.644;2023-07-31T09:54:09;2.90;;;1.92;;
69511;SDS011;70777;52.034;4.644;2023-07-31T09:56:41;5.53;;;2.30;;
69511;SDS011;70777;52.034;4.644;2023-07-31T09:59:17;4.20;;;2.15;;
69511;SDS011;70777;52.034;4.644;2023-07-31T10:01:44;6.35;;;1.98;;
69511;SDS011;70777;52.034;4.644;2023-07-31T10:04:11;2.83;;;2.13;;
69511;SDS011;70777;52.034;4.644;2023-07-31T10:06:37;3.15;;;2.15;;
69511;SDS011;70777;52.034;4.644;2023-07-31T10:09:08;5.95;;;2.00;;
69511;SDS011;70777;52.034;4.644;2023-07-31T10:11:43;4.82;;;2.10;;
69511;SDS011;70777;52.034;4.644;2023-07-31T10:14:18;7.82;;;2.50;;
69511;SDS011;70777;52.034;4.644;2023-07-31T10:16:45;6.03;;;2.05;;
69511;SDS011;70777;52.034;4.644;2023-07-31T10:19:10;3.97;;;2.15;;
69511;SDS011;70777;52.034;4.644;2023-07-31T10:21:36;5.32;;;1.95;;
69511;SDS011;70777;52.034;4.644;2023-07-31T10:24:03;6.35;;;2.08;;
69511;SDS011;70777;52.034;4.644;2023-07-31T10:26:29;10.82;;;2.50;;
69511;SDS011;70777;52.034;4.644;2023-07-31T10:28:56;8.57;;;2.78;;
69511;SDS011;70777;52.034;4.644;2023-07-31T10:33:49;4.23;;;1.90;;
69511;SDS011;70777;52.034;4.644;2023-07-31T10:36:18;6.50;;;2.75;;
69511;SDS011;70777;52.034;4.644;2023-07-31T10:38:44;8.07;;;2.90;;
69511;SDS011;70777;52.034;4.644;2023-07-31T10:41:10;9.07;;;3.25;;
69511;SDS011;70777;52.034;4.644;2023-07-31T10:43:38;11.15;;;2.67;;
69511;SDS011;70777;52.034;4.644;2023-07-31T10:46:13;6.45;;;2.78;;
69511;SDS011;70777;52.034;4.644;2023-07-31T10:48:39;6.78;;;2.97;;
69511;SDS011;70777;52.034;4.644;2023-07-31T10:51:09;6.90;;;2.67;;
69511;SDS011;70777;52.034;4.644;2023-07-31T10:53:41;10.32;;;2.50;;
69511;SDS011;70777;52.034;4.644;2023-07-31T10:56:08;7.97;;;2.70;;
69511;SDS011;70777;52.034;4.644;2023-07-31T11:01:01;8.23;;;2.75;;
69511;SDS011;70777;52.034;4.644;2023-07-31T11:03:47;10.65;;;2.78;;
69511;SDS011;70777;52.034;4.644;2023-07-31T11:06:15;6.80;;;1.98;;
69511;SDS011;70777;52.034;4.644;2023-07-31T11:08:48;16.42;;;3.63;;
69511;SDS011;70777;52.034;4.644;2023-07-31T11:11:15;12.25;;;2.63;;
69511;SDS011;70777;52.034;4.644;2023-07-31T11:13:44;12.40;;;2.13;;
69511;SDS011;70777;52.034;4.644;2023-07-31T11:16:23;7.55;;;2.58;;
69511;SDS011;70777;52.034;4.644;2023-07-31T11:18:50;10.70;;;2.75;;
69511;SDS011;70777;52.034;4.644;2023-07-31T11:21:22;7.88;;;2.08;;
69511;SDS011;70777;52.034;4.644;2023-07-31T11:23:49;7.63;;;2.55;;
69511;SDS011;70777;52.034;4.644;2023-07-31T11:26:19;7.25;;;2.55;;
69511;SDS011;70777;52.034;4.644;2023-07-31T11:28:48;9.98;;;2.53;;
69511;SDS011;70777;52.034;4.644;2023-07-31T11:31:14;6.75;;;2.22;;
69511;SDS011;70777;52.034;4.644;2023-07-31T11:33:39;5.90;;;1.98;;
69511;SDS011;70777;52.034;4.644;2023-07-31T11:36:04;7.93;;;2.10;;
69511;SDS011;70777;52.034;4.644;2023-07-31T11:38:31;11.27;;;2.25;;
69511;SDS011;70777;52.034;4.644;2023-07-31T11:41:02;4.72;;;1.90;;
69511;SDS011;70777;52.034;4.644;2023-07-31T11:43:29;5.97;;;2.30;;
69511;SDS011;70777;52.034;4.644;2023-07-31T11:45:55;8.35;;;1.92;;
69511;SDS011;70777;52.034;4.644;2023-07-31T11:48:28;9.38;;;2.33;;
69511;SDS011;70777;52.034;4.644;2023-07-31T11:50:58;7.30;;;2.05;;
69511;SDS011;70777;52.034;4.644;2023-07-31T11:56:14;5.30;;;1.95;;
69511;SDS011;70777;52.034;4.644;2023-07-31T11:58:42;9.35;;;2.38;;
69511;SDS011;70777;52.034;4.644;2023-07-31T12:01:08;9.02;;;2.95;;
69511;SDS011;70777;52.034;4.644;2023-07-31T12:03:34;6.93;;;2.53;;
69511;SDS011;70777;52.034;4.644;2023-07-31T12:05:59;6.63;;;2.78;;
69511;SDS011;70777;52.034;4.644;2023-07-31T12:08:25;6.10;;;2.53;;
69511;SDS011;70777;52.034;4.644;2023-07-31T12:10:53;7.00;;;2.65;;
69511;SDS011;70777;52.034;4.644;2023-07-31T12:13:28;6.40;;;2.28;;
69511;SDS011;70777;52.034;4.644;2023-07-31T12:15:56;7.53;;;2.30;;
69511;SDS011;70777;52.034;4.644;2023-07-31T12:18:23;5.82;;;2.28;;
69511;SDS011;70777;52.034;4.644;2023-07-31T12:20:53;4.70;;;2.10;;
69511;SDS011;70777;52.034;4.644;2023-07-31T12:23:21;6.70;;;2.30;;
69511;SDS011;70777;52.034;4.644;2023-07-31T12:26:03;7.28;;;2.30;;
69511;SDS011;70777;52.034;4.644;2023-07-31T12:28:29;9.30;;;2.97;;
69511;SDS011;70777;52.034;4.644;2023-07-31T12:30:59;5.80;;;2.50;;
69511;SDS011;70777;52.034;4.644;2023-07-31T12:33:30;8.38;;;2.17;;
69511;SDS011;70777;52.034;4.644;2023-07-31T12:35:57;7.05;;;2.38;;
69511;SDS011;70777;52.034;4.644;2023-07-31T12:38:22;6.63;;;2.15;;
69511;SDS011;70777;52.034;4.644;2023-07-31T12:40:48;6.18;;;2.55;;
69511;SDS011;70777;52.034;4.644;2023-07-31T12:43:13;4.70;;;2.03;;
69511;SDS011;70777;52.034;4.644;2023-07-31T12:45:39;5.65;;;2.50;;
69511;SDS011;70777;52.034;4.644;2023-07-31T12:48:04;7.28;;;2.92;;
69511;SDS011;70777;52.034;4.644;2023-07-31T12:50:29;6.93;;;3.00;;
69511;SDS011;70777;52.034;4.644;2023-07-31T12:52:55;8.18;;;2.85;;
69511;SDS011;70777;52.034;4.644;2023-07-31T12:55:22;10.05;;;2.42;;
69511;SDS011;70777;52.034;4.644;2023-07-31T12:57:47;6.88;;;2.45;;
69511;SDS011;70777;52.034;4.644;2023-07-31T13:00:13;7.40;;;2.63;;
69511;SDS011;70777;52.034;4.644;2023-07-31T13:02:39;4.57;;;2.30;;
69511;SDS011;70777;52.034;4.644;2023-07-31T13:05:08;4.32;;;2.35;;
69511;SDS011;70777;52.034;4.644;2023-07-31T13:07:34;2.33;;;1.30;;
69511;SDS011;70777;52.034;4.644;2023-07-31T13:09:59;3.05;;;1.60;;
69511;SDS011;70777;52.034;4.644;2023-07-31T13:12:24;2.85;;;1.95;;
69511;SDS011;70777;52.034;4.644;2023-07-31T13:14:50;3.03;;;1.88;;
69511;SDS011;70777;52.034;4.644;2023-07-31T13:17:16;3.17;;;1.90;;
69511;SDS011;70777;52.034;4.644;2023-07-31T13:19:41;2.58;;;2.00;;
69511;SDS011;70777;52.034;4.644;2023-07-31T13:22:07;3.47;;;2.00;;
69511;SDS011;70777;52.034;4.644;2023-07-31T13:24:33;3.53;;;2.20;;
69511;SDS011;70777;52.034;4.644;2023-07-31T13:26:58;3.95;;;2.25;;
69511;SDS011;70777;52.034;4.644;2023-07-31T13:29:23;4.13;;;2.15;;
69511;SDS011;70777;52.034;4.644;2023-07-31T13:31:49;3.33;;;1.85;;
69511;SDS011;70777;52.034;4.644;2023-07-31T13:34:14;1.63;;;1.50;;
69511;SDS011;70777;52.034;4.644;2023-07-31T13:36:40;3.03;;;1.43;;
69511;SDS011;70777;52.034;4.644;2023-07-31T13:39:06;3.95;;;1.50;;
69511;SDS011;70777;52.034;4.644;2023-07-31T13:41:32;3.65;;;1.63;;
69511;SDS011;70777;52.034;4.644;2023-07-31T13:43:57;3.55;;;1.25;;
69511;SDS011;70777;52.034;4.644;2023-07-31T13:46:23;2.47;;;1.20;;
69511;SDS011;70777;52.034;4.644;2023-07-31T13:48:48;3.90;;;1.10;;
69511;SDS011;70777;52.034;4.644;2023-07-31T13:51:13;1.17;;;1.08;;
69511;SDS011;70777;52.034;4.644;2023-07-31T13:53:39;1.98;;;1.35;;
69511;SDS011;70777;52.034;4.644;2023-07-31T13:56:04;2.78;;;1.27;;
69511;SDS011;70777;52.034;4.644;2023-07-31T13:58:30;1.30;;;1.20;;
69511;SDS011;70777;52.034;4.644;2023-07-31T14:00:55;1.20;;;1.10;;
69511;SDS011;70777;52.034;4.644;2023-07-31T14:03:20;2.53;;;1.10;;
69511;SDS011;70777;52.034;4.644;2023-07-31T14:05:46;1.63;;;0.90;;
69511;SDS011;70777;52.034;4.644;2023-07-31T14:08:11;0.90;;;0.90;;
69511;SDS011;70777;52.034;4.644;2023-07-31T14:10:37;1.45;;;0.85;;
69511;SDS011;70777;52.034;4.644;2023-07-31T14:13:02;0.70;;;0.70;;
69511;SDS011;70777;52.034;4.644;2023-07-31T14:15:28;0.75;;;0.70;;
69511;SDS011;70777;52.034;4.644;2023-07-31T14:17:53;0.80;;;0.80;;
69511;SDS011;70777;52.034;4.644;2023-07-31T14:20:19;0.85;;;0.85;;
69511;SDS011;70777;52.034;4.644;2023-07-31T14:22:44;1.40;;;0.90;;
69511;SDS011;70777;52.034;4.644;2023-07-31T14:25:09;1.05;;;0.93;;
69511;SDS011;70777;52.034;4.644;2023-07-31T14:27:35;0.93;;;0.90;;
69511;SDS011;70777;52.034;4.644;2023-07-31T14:30:02;0.90;;;0.90;;
69511;SDS011;70777;52.034;4.644;2023-07-31T14:32:28;1.15;;;1.05;;
69511;SDS011;70777;52.034;4.644;2023-07-31T14:34:53;2.10;;;1.30;;
69511;SDS011;70777;52.034;4.644;2023-07-31T14:37:20;2.20;;;1.50;;
69511;SDS011;70777;52.034;4.644;2023-07-31T14:39:45;1.60;;;1.50;;
69511;SDS011;70777;52.034;4.644;2023-07-31T14:42:11;3.47;;;1.65;;
69511;SDS011;70777;52.034;4.644;2023-07-31T14:44:36;1.50;;;1.20;;
69511;SDS011;70777;52.034;4.644;2023-07-31T14:47:02;1.25;;;0.90;;
69511;SDS011;70777;52.034;4.644;2023-07-31T14:49:27;0.90;;;0.90;;
69511;SDS011;70777;52.034;4.644;2023-07-31T14:51:53;1.27;;;0.80;;
69511;SDS011;70777;52.034;4.644;2023-07-31T14:54:19;1.63;;;1.08;;
69511;SDS011;70777;52.034;4.644;2023-07-31T14:56:44;1.10;;;1.00;;
69511;SDS011;70777;52.034;4.644;2023-07-31T14:59:10;1.55;;;1.17;;